Time;durP1;ratioP1;P1;durP2;ratioP2;P2;SDS_P1;SDS_P2;PMS_P1;PMS_P2;Temp;Humidity;BMP_temperature;BMP_pressure;BME280_temperature;BME280_humidity;BME280_pressure;Samples;Min_cycle;Max_cycle;Signal;HPM_P1;HPM_P2
2021/07/06 00:00:13;;;;;;;13.25;11.52;;;;;;;21.89;62.71;99383.78;5108095;28;20032;-21
2021/07/06 00:02:38;;;;;;;14.55;11.88;;;;;;;22.13;61.88;99380.69;5090085;28;20043;-21
2021/07/06 00:05:04;;;;;;;13.85;11.23;;;;;;;21.65;63.30;99372.13;5108037;28;20134;-22
2021/07/06 00:07:30;;;;;;;14.98;11.63;;;;;;;21.85;62.64;99384.38;5107983;28;20475;-21
2021/07/06 00:09:56;;;;;;;13.25;11.82;;;;;;;21.73;62.46;99350.78;5108242;28;20069;-21
2021/07/06 00:12:22;;;;;;;18.60;14.10;;;;;;;21.72;63.12;99379.84;5108210;28;20081;-21
2021/07/06 00:14:47;;;;;;;13.95;12.35;;;;;;;21.81;62.42;99383.41;5108280;28;20032;-21
2021/07/06 00:17:13;;;;;;;13.77;11.02;;;;;;;21.87;62.56;99384.06;5089590;28;20628;-22
2021/07/06 00:19:38;;;;;;;12.23;11.02;;;;;;;21.50;63.56;99364.38;5107764;28;20500;-22
2021/07/06 00:22:04;;;;;;;12.75;11.25;;;;;;;21.46;64.02;99379.66;5107244;28;20493;-22
2021/07/06 00:24:29;;;;;;;13.73;11.10;;;;;;;21.44;64.00;99371.03;5107993;28;20027;-21
2021/07/06 00:26:55;;;;;;;13.63;11.65;;;;;;;21.37;64.26;99376.84;5111802;28;20052;-21
2021/07/06 00:29:21;;;;;;;12.88;11.10;;;;;;;21.49;63.59;99373.59;5093533;28;20032;-21
2021/07/06 00:31:46;;;;;;;16.27;12.10;;;;;;;21.38;64.11;99369.53;5093658;28;20039;-21
2021/07/06 00:34:12;;;;;;;12.60;11.20;;;;;;;21.28;64.21;99368.63;5110789;28;20040;-21
2021/07/06 00:36:37;;;;;;;13.73;11.77;;;;;;;21.24;64.64;99372.28;5106004;28;20032;-21
2021/07/06 00:39:03;;;;;;;13.02;11.65;;;;;;;20.97;64.97;99367.75;5097765;28;20046;-21
2021/07/06 00:41:29;;;;;;;17.15;11.65;;;;;;;21.12;65.12;99377.44;5111583;28;20143;-22
2021/07/06 00:43:55;;;;;;;15.50;11.80;;;;;;;21.23;64.24;99374.19;5104675;28;20646;-21
2021/07/06 00:46:20;;;;;;;17.33;13.38;;;;;;;21.06;65.00;99371.31;5110650;28;20466;-21
2021/07/06 00:48:46;;;;;;;13.93;12.43;;;;;;;21.10;64.51;99361.47;5093502;28;20043;-21
2021/07/06 00:51:11;;;;;;;13.52;12.07;;;;;;;21.12;64.30;99380.16;5110636;28;20803;-21
2021/07/06 00:53:37;;;;;;;15.00;11.73;;;;;;;20.60;66.26;99366.91;5091056;28;20066;-21
2021/07/06 00:56:03;;;;;;;14.55;12.20;;;;;;;20.65;66.40;99373.00;5090877;28;20122;-21
2021/07/06 00:58:28;;;;;;;14.65;12.57;;;;;;;20.82;65.75;99383.22;5056261;28;20498;-21
2021/07/06 01:00:54;;;;;;;14.00;12.50;;;;;;;20.94;65.48;99390.03;5090980;28;20039;-21
2021/07/06 01:03:20;;;;;;;13.63;12.02;;;;;;;20.86;64.66;99373.38;5090502;28;20088;-21
2021/07/06 01:05:46;;;;;;;14.43;12.57;;;;;;;20.82;64.97;99385.13;5072261;28;20381;-22
2021/07/06 01:08:11;;;;;;;13.05;11.63;;;;;;;20.74;65.07;99375.00;5090711;28;20084;-21
2021/07/06 01:10:37;;;;;;;15.43;12.27;;;;;;;20.80;64.78;99377.31;5090645;28;20032;-21
2021/07/06 01:13:03;;;;;;;15.05;12.25;;;;;;;21.01;64.42;99391.22;5090566;28;20111;-21
2021/07/06 01:15:29;;;;;;;15.68;11.65;;;;;;;20.94;64.75;99390.81;5102478;28;20028;-22
2021/07/06 01:18:06;;;;;;;13.13;11.45;;;;;;;21.12;64.19;99386.38;5091340;28;20127;-21
2021/07/06 01:20:33;;;;;;;14.05;11.18;;;;;;;21.19;63.69;99388.69;5090450;28;20124;-21
2021/07/06 01:22:59;;;;;;;13.00;11.07;;;;;;;21.00;64.06;99367.13;5072308;28;20032;-21
2021/07/06 01:25:24;;;;;;;13.73;11.27;;;;;;;21.21;63.69;99389.97;5090369;28;20108;-21
2021/07/06 01:27:50;;;;;;;13.48;11.18;;;;;;;21.44;63.06;99388.09;5092316;28;20036;-22
2021/07/06 01:30:16;;;;;;;12.73;11.20;;;;;;;21.27;63.30;99385.22;5090180;28;20031;-22
2021/07/06 01:32:43;;;;;;;15.85;11.57;;;;;;;21.33;63.39;99408.41;5090252;28;20453;-22
2021/07/06 01:35:09;;;;;;;13.20;11.80;;;;;;;21.36;62.91;99385.31;5071955;28;20035;-21
2021/07/06 01:37:34;;;;;;;11.98;10.77;;;;;;;21.62;62.26;99391.75;5089931;28;20498;-21
2021/07/06 01:40:00;;;;;;;13.57;11.38;;;;;;;21.31;63.11;99393.53;5077015;28;20032;-21
2021/07/06 01:42:26;;;;;;;12.77;10.80;;;;;;;21.57;62.44;99401.91;5090106;28;20043;-21
2021/07/06 01:45:11;;;;;;;12.23;10.90;;;;;;;21.28;63.22;99401.19;5090122;28;20563;-22
2021/07/06 01:47:38;;;;;;;12.65;10.52;;;;;;;20.84;64.58;99386.44;5089916;28;20479;-23
2021/07/06 01:50:05;;;;;;;12.93;9.85;;;;;;;20.80;64.75;99388.16;5103147;28;20102;-21
2021/07/06 01:52:30;;;;;;;15.05;11.88;;;;;;;20.75;65.44;99398.28;5110235;28;20027;-21
2021/07/06 01:54:56;;;;;;;15.00;10.98;;;;;;;21.04;64.42;99401.47;5110023;28;20046;-21
2021/07/06 01:57:24;;;;;;;12.88;9.90;;;;;;;21.27;63.58;99396.88;5110262;28;20036;-21
2021/07/06 01:59:51;;;;;;;12.57;10.48;;;;;;;21.42;62.93;99403.06;5109562;28;20034;-22
2021/07/06 02:02:16;;;;;;;12.52;11.15;;;;;;;21.40;62.60;99391.72;5109884;28;20044;-22
2021/07/06 02:04:42;;;;;;;12.55;10.43;;;;;;;21.51;62.69;99403.94;5110161;28;20043;-21
2021/07/06 02:07:07;;;;;;;12.88;10.55;;;;;;;21.46;62.61;99390.50;5110037;28;20049;-21
2021/07/06 02:09:33;;;;;;;13.00;10.63;;;;;;;21.56;62.27;99406.53;5109860;28;20035;-22
2021/07/06 02:11:58;;;;;;;14.43;11.32;;;;;;;20.77;64.53;99399.59;5109536;28;20042;-22
2021/07/06 02:14:24;;;;;;;15.18;12.40;;;;;;;20.43;66.11;99394.53;5109743;28;20043;-21
2021/07/06 02:16:49;;;;;;;14.77;11.27;;;;;;;20.52;65.87;99402.78;5107346;28;20042;-22
2021/07/06 02:19:15;;;;;;;14.52;12.25;;;;;;;20.57;65.86;99406.19;5106529;28;20058;-21
2021/07/06 02:21:41;;;;;;;13.85;11.73;;;;;;;20.48;66.09;99405.28;5091306;28;20108;-21
2021/07/06 02:24:07;;;;;;;13.23;11.82;;;;;;;20.42;66.39;99406.50;5109286;28;20043;-22
2021/07/06 02:26:32;;;;;;;14.02;12.40;;;;;;;20.46;66.40;99408.28;5091401;28;20028;-21
2021/07/06 02:28:58;;;;;;;15.13;11.77;;;;;;;20.85;65.01;99409.72;5109415;28;20039;-21
2021/07/06 02:31:23;;;;;;;14.45;11.88;;;;;;;21.04;64.28;99396.03;5109376;28;20506;-21
2021/07/06 02:33:49;;;;;;;16.45;12.70;;;;;;;21.23;63.60;99404.03;5091122;28;20046;-22
2021/07/06 02:36:14;;;;;;;16.90;12.75;;;;;;;20.68;65.08;99409.53;5091101;28;20072;-21
2021/07/06 02:38:40;;;;;;;17.10;13.60;;;;;;;20.53;65.80;99407.09;5074158;28;20039;-21
2021/07/06 02:41:05;;;;;;;17.13;12.85;;;;;;;20.64;65.24;99409.34;5109496;28;20031;-21
2021/07/06 02:43:31;;;;;;;17.90;12.68;;;;;;;20.88;64.65;99405.59;5090985;28;20031;-21
2021/07/06 02:45:56;;;;;;;16.10;12.10;;;;;;;20.95;64.10;99407.91;5090398;28;20392;-22
2021/07/06 02:48:22;;;;;;;15.15;12.02;;;;;;;20.89;64.08;99409.13;5070544;28;20028;-21
2021/07/06 02:50:48;;;;;;;13.52;11.30;;;;;;;20.84;64.39;99420.84;5070567;28;20470;-21
2021/07/06 02:53:13;;;;;;;15.23;11.45;;;;;;;20.98;63.76;99415.41;5070559;28;20461;-22
2021/07/06 02:55:39;;;;;;;14.00;11.30;;;;;;;20.89;63.79;99414.53;5088580;28;20020;-21
2021/07/06 02:58:05;;;;;;;15.48;12.30;;;;;;;20.84;64.08;99421.66;5070205;28;20024;-21
2021/07/06 03:00:31;;;;;;;15.30;12.52;;;;;;;21.09;63.56;99419.53;5088540;28;20044;-21
2021/07/06 03:02:58;;;;;;;15.10;12.30;;;;;;;21.23;63.09;99419.50;5088266;28;20040;-21
2021/07/06 03:05:25;;;;;;;13.32;11.85;;;;;;;21.39;62.16;99412.63;5088778;28;20020;-21
2021/07/06 03:07:51;;;;;;;14.73;11.57;;;;;;;21.36;62.09;99425.97;5087951;28;20039;-21
2021/07/06 03:10:24;;;;;;;14.90;11.57;;;;;;;21.27;62.18;99432.13;5104007;28;20096;-21
2021/07/06 03:12:49;;;;;;;15.32;11.60;;;;;;;21.33;69.83;99434.72;5105889;28;20034;-22
2021/07/06 03:15:16;;;;;;;14.27;10.35;;;;;;;21.92;65.70;99415.72;5088610;28;20020;-22
2021/07/06 03:17:42;;;;;;;15.20;10.23;;;;;;;22.29;61.43;99449.81;5108607;28;20031;-21
2021/07/06 03:20:08;;;;;;;17.42;10.88;;;;;;;22.49;66.18;99448.47;5090220;28;20544;-21
2021/07/06 03:22:34;;;;;;;13.85;10.27;;;;;;;22.40;63.14;99442.19;5108604;28;20028;-21
2021/07/06 03:24:59;;;;;;;12.70;9.75;;;;;;;22.37;63.99;99457.22;5101092;28;20035;-22
2021/07/06 03:27:25;;;;;;;12.77;9.75;;;;;;;22.33;61.55;99437.22;5097002;28;20182;-21
2021/07/06 03:29:51;;;;;;;13.80;9.88;;;;;;;22.07;62.62;99427.00;5086223;28;20034;-22
2021/07/06 03:32:17;;;;;;;16.65;10.90;;;;;;;22.76;61.70;99452.91;5087453;28;20094;-21
2021/07/06 03:34:42;;;;;;;13.07;9.85;;;;;;;22.82;59.64;99457.06;5086353;28;20036;-22
2021/07/06 03:37:08;;;;;;;13.30;9.50;;;;;;;23.02;60.06;99465.78;5087744;28;20028;-21
2021/07/06 03:39:38;;;;;;;14.07;10.32;;;;;;;22.33;58.82;99455.41;5088015;28;20065;-21
2021/07/06 03:42:05;;;;;;;13.27;10.07;;;;;;;22.71;60.83;99458.47;5087493;28;20488;-21
2021/07/06 03:44:30;;;;;;;11.65;9.43;;;;;;;22.78;58.20;99466.16;5087889;28;20028;-22
2021/07/06 03:46:56;;;;;;;11.60;9.48;;;;;;;22.37;60.24;99467.25;5088059;28;20657;-21
2021/07/06 03:49:21;;;;;;;12.60;10.05;;;;;;;22.41;60.76;99465.53;5088126;28;20059;-22
2021/07/06 03:51:47;;;;;;;13.57;10.20;;;;;;;22.73;60.08;99474.47;5088457;28;20040;-21
2021/07/06 03:54:12;;;;;;;13.80;10.95;;;;;;;22.53;59.84;99464.94;5087630;28;20057;-22
2021/07/06 03:56:37;;;;;;;11.25;10.05;;;;;;;22.97;58.64;99471.34;5087643;28;20070;-21
2021/07/06 03:59:03;;;;;;;14.43;10.13;;;;;;;22.93;58.72;99473.09;5087870;28;20032;-22
2021/07/06 04:01:28;;;;;;;12.55;10.45;;;;;;;22.93;58.62;99468.44;5090769;28;20036;-21
2021/07/06 04:03:54;;;;;;;13.25;10.57;;;;;;;22.71;59.21;99473.97;5091660;28;20419;-21
2021/07/06 04:06:19;;;;;;;13.35;11.55;;;;;;;22.95;58.32;99479.00;5091976;28;20780;-21
2021/07/06 04:08:45;;;;;;;14.65;11.57;;;;;;;22.80;58.93;99478.34;5091840;28;20039;-21
2021/07/06 04:11:10;;;;;;;15.02;10.82;;;;;;;23.19;57.86;99479.44;5091776;28;20040;-21
2021/07/06 04:13:36;;;;;;;12.45;10.45;;;;;;;22.99;58.74;99486.22;5091755;28;20407;-21
2021/07/06 04:16:01;;;;;;;12.00;10.05;;;;;;;22.98;58.39;99486.53;5091428;28;20028;-21
2021/07/06 04:18:27;;;;;;;11.30;9.95;;;;;;;22.75;58.13;99492.06;5091623;28;20040;-21
2021/07/06 04:20:52;;;;;;;14.45;10.00;;;;;;;22.75;58.38;99474.94;5091477;28;20108;-22
2021/07/06 04:23:17;;;;;;;14.65;9.98;;;;;;;;;;5091945;28;20043;-22
2021/07/06 04:25:43;;;;;;;12.18;9.43;;;;;;;22.78;58.69;99494.16;5091488;28;20196;-22
2021/07/06 04:28:08;;;;;;;10.52;9.10;;;;;;;22.83;58.83;99491.28;5091196;28;20494;-21
2021/07/06 04:30:34;;;;;;;13.32;9.45;;;;;;;22.47;59.30;99472.44;5091913;28;20077;-21
2021/07/06 04:32:59;;;;;;;11.45;9.88;;;;;;;22.77;58.77;99494.47;5091193;28;20426;-21
2021/07/06 04:35:25;;;;;;;12.82;9.55;;;;;;;23.09;58.56;99498.75;5091162;28;20031;-22
2021/07/06 04:37:50;;;;;;;11.63;9.43;;;;;;;22.55;59.71;99504.28;5091033;28;20032;-21
2021/07/06 04:40:16;;;;;;;12.10;9.80;;;;;;;22.47;59.44;99499.59;5091168;28;20248;-22
2021/07/06 04:42:42;;;;;;;11.57;9.63;;;;;;;22.47;59.71;99488.72;5091342;28;20468;-21
2021/07/06 04:45:08;;;;;;;12.40;10.05;;;;;;;22.05;61.21;99488.94;5091113;28;20023;-21
2021/07/06 04:47:33;;;;;;;11.07;8.95;;;;;;;21.82;61.58;99500.91;5090993;28;20514;-21
2021/07/06 04:49:59;;;;;;;11.95;10.00;;;;;;;21.62;63.00;99518.47;5090989;28;20035;-21
2021/07/06 04:52:25;;;;;;;11.70;10.35;;;;;;;21.75;62.83;99517.63;5090790;28;20031;-21
2021/07/06 04:54:51;;;;;;;13.57;10.60;;;;;;;22.05;62.24;99521.53;5090870;28;20056;-22
2021/07/06 04:57:21;;;;;;;10.82;9.68;;;;;;;22.42;61.26;99519.56;5090862;28;20063;-21
2021/07/06 04:59:47;;;;;;;12.32;10.07;;;;;;;22.62;60.79;99525.59;5090639;28;20490;-21
2021/07/06 05:02:12;;;;;;;12.18;10.70;;;;;;;22.74;60.32;99530.41;5090604;28;20138;-22
2021/07/06 05:04:38;;;;;;;11.55;10.35;;;;;;;22.92;59.96;99523.13;5072543;28;20052;-21
2021/07/06 05:07:03;;;;;;;12.68;10.10;;;;;;;22.99;59.44;99518.84;5090949;28;20020;-21
2021/07/06 05:09:31;;;;;;;11.38;9.25;;;;;;;22.85;59.19;99516.25;5072956;28;20109;-21
2021/07/06 05:11:56;;;;;;;11.23;9.88;;;;;;;22.72;59.77;99530.75;5072801;28;20020;-21
2021/07/06 05:14:22;;;;;;;11.05;9.30;;;;;;;22.80;59.91;99521.81;5090452;28;20036;-21
2021/07/06 05:16:47;;;;;;;12.02;9.52;;;;;;;22.73;60.19;99532.34;5090314;28;20028;-21
2021/07/06 05:19:13;;;;;;;11.80;9.93;;;;;;;22.97;59.53;99533.88;5090689;28;20044;-21
2021/07/06 05:21:38;;;;;;;11.30;9.65;;;;;;;23.37;58.60;99531.13;5090466;28;20490;-21
2021/07/06 05:24:04;;;;;;;13.88;9.68;;;;;;;23.54;58.22;99542.06;5090085;28;20035;-21
2021/07/06 05:26:30;;;;;;;12.40;9.63;;;;;;;23.66;58.05;99536.78;5090396;28;20500;-22
2021/07/06 05:28:55;;;;;;;11.23;9.73;;;;;;;23.65;58.14;99548.78;5090429;28;20484;-21
2021/07/06 05:31:21;;;;;;;12.35;9.45;;;;;;;23.95;57.08;99535.38;5090236;28;20028;-21
2021/07/06 05:33:46;;;;;;;12.07;9.23;;;;;;;24.09;56.53;99545.28;5090125;28;20040;-22
2021/07/06 05:36:12;;;;;;;11.73;9.07;;;;;;;24.21;55.62;99542.69;5090079;28;20024;-21
2021/07/06 05:38:37;;;;;;;12.07;9.15;;;;;;;24.30;55.90;99545.44;5089953;28;20036;-21
2021/07/06 05:41:05;;;;;;;12.50;9.25;;;;;;;24.14;56.22;99537.75;5090089;28;20028;-22
2021/07/06 05:43:30;;;;;;;12.10;8.60;;;;;;;24.42;55.85;99543.66;5090084;28;20035;-21
2021/07/06 05:45:56;;;;;;;14.88;9.75;;;;;;;24.32;56.34;99527.63;5071631;28;20479;-21
2021/07/06 05:48:21;;;;;;;13.80;8.88;;;;;;;24.68;55.79;99542.78;5089954;28;20152;-21
2021/07/06 05:50:47;;;;;;;11.32;9.65;;;;;;;24.72;56.34;99557.38;5090413;28;20433;-21
2021/07/06 05:53:13;;;;;;;11.32;9.60;;;;;;;24.81;55.79;99555.41;5089593;28;20067;-22
2021/07/06 05:55:39;;;;;;;13.85;9.90;;;;;;;24.76;55.82;99546.63;5071465;28;20039;-21
2021/07/06 05:58:04;;;;;;;13.35;10.00;;;;;;;24.84;55.62;99543.06;5089449;28;20109;-22
2021/07/06 06:00:30;;;;;;;9.40;8.18;;;;;;;25.14;55.55;99557.53;5089629;28;20032;-21
2021/07/06 06:02:56;;;;;;;23.40;16.73;;;;;;;25.51;53.91;99565.22;5089577;28;20523;-21
2021/07/06 06:05:21;;;;;;;10.15;7.47;;;;;;;25.59;53.26;99562.41;5089445;28;20042;-21
2021/07/06 06:07:48;;;;;;;8.68;6.63;;;;;;;25.35;51.56;99551.34;5089043;28;20032;-21
2021/07/06 06:10:14;;;;;;;9.60;7.53;;;;;;;25.49;51.17;99562.81;5089453;28;20028;-21
2021/07/06 06:12:40;;;;;;;12.20;7.18;;;;;;;25.45;51.94;99562.66;5089418;28;20032;-21
2021/07/06 06:15:06;;;;;;;19.13;7.60;;;;;;;25.84;52.34;99562.56;5071107;28;20032;-21
2021/07/06 06:17:31;;;;;;;8.32;7.00;;;;;;;26.12;50.69;99567.53;5089222;28;20031;-21
2021/07/06 06:19:57;;;;;;;8.43;7.07;;;;;;;26.27;50.30;99564.16;5089012;28;20028;-21
2021/07/06 06:22:23;;;;;;;11.70;6.97;;;;;;;26.19;50.45;99554.09;5088778;28;20546;-21
2021/07/06 06:24:49;;;;;;;8.68;6.82;;;;;;;26.10;49.93;99575.25;5089089;28;20024;-21
2021/07/06 06:27:15;;;;;;;13.05;6.80;;;;;;;25.48;49.31;99555.78;5088872;28;20438;-21
2021/07/06 06:29:41;;;;;;;10.82;7.10;;;;;;;25.63;50.31;99574.28;5088806;28;20024;-21
2021/07/06 06:32:06;;;;;;;9.55;7.40;;;;;;;25.82;50.61;99570.28;5088991;28;20032;-21
2021/07/06 06:34:32;;;;;;;8.13;7.00;;;;;;;26.13;50.42;99580.81;5089300;28;20089;-21
2021/07/06 06:36:57;;;;;;;8.95;6.70;;;;;;;26.61;48.82;99573.97;5088860;28;20419;-21
2021/07/06 06:39:23;;;;;;;9.23;6.25;;;;;;;26.57;47.96;99572.22;5088867;28;20032;-21
2021/07/06 06:41:50;;;;;;;10.68;7.22;;;;;;;26.56;48.73;99581.53;5088707;28;20040;-21
2021/07/06 06:44:15;;;;;;;7.15;5.65;;;;;;;26.44;46.39;99582.34;5088653;28;20548;-21
2021/07/06 06:46:41;;;;;;;9.35;6.78;;;;;;;26.50;48.16;99564.56;5088660;28;20032;-21
2021/07/06 06:49:06;;;;;;;9.98;6.85;;;;;;;26.80;48.07;99581.63;5088722;28;20028;-21
2021/07/06 06:51:32;;;;;;;12.93;6.63;;;;;;;26.78;46.78;99561.22;5088573;28;20024;-22
2021/07/06 06:53:58;;;;;;;9.10;6.40;;;;;;;26.68;46.15;99565.19;5088179;28;20028;-21
2021/07/06 06:56:23;;;;;;;9.43;6.30;;;;;;;26.73;45.91;99570.47;5088454;28;20395;-21
2021/07/06 06:58:49;;;;;;;9.90;6.85;;;;;;;26.63;46.63;99570.91;5088533;28;20399;-21
2021/07/06 07:01:14;;;;;;;9.48;6.78;;;;;;;26.85;46.62;99581.41;5088309;28;20040;-21
2021/07/06 07:03:40;;;;;;;10.13;6.55;;;;;;;27.09;46.44;99573.56;5088071;28;20067;-21
2021/07/06 07:06:06;;;;;;;9.43;6.53;;;;;;;27.24;45.63;99578.41;5070029;28;20024;-21
2021/07/06 07:08:31;;;;;;;9.38;6.97;;;;;;;27.23;45.95;99572.09;5088565;28;20028;-21
2021/07/06 07:10:57;;;;;;;8.90;6.50;;;;;;;27.50;45.21;99586.22;5088618;28;20032;-21
2021/07/06 07:13:24;;;;;;;10.18;6.43;;;;;;;27.46;45.17;99579.84;5088458;28;20150;-21
2021/07/06 07:15:50;;;;;;;8.93;6.30;;;;;;;27.77;45.10;99584.72;5088238;28;20056;-21
2021/07/06 07:18:15;;;;;;;10.07;6.03;;;;;;;27.79;43.86;99582.44;5088585;28;20028;-21
2021/07/06 07:20:41;;;;;;;9.43;6.15;;;;;;;27.82;42.91;99583.66;5088103;28;20036;-21
2021/07/06 07:23:06;;;;;;;8.25;6.30;;;;;;;27.75;44.07;99572.50;5088212;28;20032;-21
2021/07/06 07:25:32;;;;;;;7.65;6.10;;;;;;;27.56;45.26;99560.19;5070114;28;20043;-21
2021/07/06 07:27:58;;;;;;;11.48;6.20;;;;;;;27.71;43.92;99579.84;5087699;28;20039;-21
2021/07/06 07:30:24;;;;;;;8.15;5.55;;;;;;;27.92;43.27;99580.47;5087847;28;20029;-21
2021/07/06 07:32:49;;;;;;;8.30;6.47;;;;;;;28.24;42.99;99575.13;5070007;28;20103;-21
2021/07/06 07:35:15;;;;;;;7.40;5.45;;;;;;;28.67;42.52;99576.28;5087051;28;20028;-21
2021/07/06 07:37:41;;;;;;;7.10;5.70;;;;;;;29.02;41.68;99572.84;5070035;28;20029;-22
2021/07/06 07:40:07;;;;;;;7.50;5.90;;;;;;;29.04;41.11;99565.84;5087628;28;20039;-21
2021/07/06 07:42:32;;;;;;;7.53;5.10;;;;;;;29.10;39.54;99582.84;5086434;28;20020;-21
2021/07/06 07:44:58;;;;;;;7.53;5.22;;;;;;;29.33;40.25;99579.47;5087669;28;20119;-21
2021/07/06 07:47:23;;;;;;;7.25;5.25;;;;;;;29.29;38.46;99568.41;5087845;28;20067;-21
2021/07/06 07:49:49;;;;;;;7.03;5.28;;;;;;;29.50;40.51;99576.31;5087504;28;20032;-21
2021/07/06 07:52:14;;;;;;;6.32;5.22;;;;;;;29.66;39.17;99568.03;5088219;28;20028;-21
2021/07/06 07:54:40;;;;;;;7.28;5.22;;;;;;;29.65;38.85;99578.25;5087857;28;20037;-21
2021/07/06 07:57:09;;;;;;;9.43;5.57;;;;;;;30.07;37.92;99576.78;5087642;28;20446;-21
2021/07/06 07:59:35;;;;;;;7.72;5.20;;;;;;;29.89;37.26;99573.66;5069978;28;20029;-21
2021/07/06 08:02:00;;;;;;;7.07;5.70;;;;;;;29.63;38.06;99572.31;5087232;28;20039;-21
2021/07/06 08:04:26;;;;;;;6.45;4.72;;;;;;;29.91;37.46;99571.34;5087707;28;20048;-21
2021/07/06 08:06:51;;;;;;;11.05;5.85;;;;;;;30.37;36.71;99577.00;5087506;28;20024;-21
2021/07/06 08:09:17;;;;;;;9.35;5.43;;;;;;;30.36;37.77;99580.91;5087830;28;20039;-21
2021/07/06 08:11:42;;;;;;;7.05;4.55;;;;;;;30.39;36.75;99580.19;5087641;28;20077;-21
2021/07/06 08:14:08;;;;;;;9.65;4.97;;;;;;;30.33;37.15;99587.13;5087465;28;20032;-24
2021/07/06 08:16:34;;;;;;;6.57;4.90;;;;;;;30.66;36.74;99584.97;5087477;28;20024;-23
2021/07/06 08:18:59;;;;;;;7.28;5.10;;;;;;;30.74;36.81;99579.22;5087195;28;20046;-24
2021/07/06 08:21:24;;;;;;;6.78;4.95;;;;;;;30.61;36.31;99591.59;5087029;28;20431;-24
2021/07/06 08:23:50;;;;;;;6.75;4.30;;;;;;;31.01;36.59;99588.34;5087134;28;20117;-23
2021/07/06 08:26:17;;;;;;;7.00;4.47;;;;;;;30.79;35.30;99570.69;5087448;28;20480;-23
2021/07/06 08:28:45;;;;;;;6.43;4.87;;;;;;;30.90;37.41;99578.34;5086908;28;20108;-23
2021/07/06 08:31:10;;;;;;;7.60;4.93;;;;;;;31.08;36.75;99582.19;5087370;28;20040;-24
2021/07/06 08:33:35;;;;;;;6.57;4.47;;;;;;;31.14;36.38;99590.91;5087311;28;20032;-23
2021/07/06 08:36:01;;;;;;;6.22;4.50;;;;;;;31.21;35.34;99578.03;5087128;28;20043;-23
2021/07/06 08:38:26;;;;;;;8.02;4.50;;;;;;;31.52;36.36;99562.38;5087820;28;20752;-23
2021/07/06 08:40:52;;;;;;;5.40;4.05;;;;;;;31.73;34.18;99578.44;5087397;28;20047;-23
2021/07/06 08:43:17;;;;;;;6.93;4.20;;;;;;;32.01;33.48;99572.50;5069075;28;20036;-23
2021/07/06 08:45:43;;;;;;;6.50;3.80;;;;;;;32.69;33.34;99572.44;5087482;28;20111;-23
2021/07/06 09:13:55;;;;;;;4.78;3.22;;;;;;;31.62;30.94;99556.22;4815695;27;8314547;-23
2021/07/06 09:16:27;;;;;;;5.47;3.40;;;;;;;32.57;29.91;99581.00;5087200;28;20052;-23
2021/07/06 09:18:53;;;;;;;6.55;3.10;;;;;;;33.26;29.37;99571.34;5105085;28;20028;-23
2021/07/06 09:21:18;;;;;;;4.50;3.35;;;;;;;33.99;28.95;99569.34;5104059;28;20032;-22
2021/07/06 09:23:45;;;;;;;5.68;2.80;;;;;;;34.40;27.29;99571.88;5105161;28;20043;-22
2021/07/06 09:26:29;;;;;;;3.47;2.58;;;;;;;33.87;27.24;99578.00;5105150;28;20028;-23
2021/07/06 09:28:56;;;;;;;4.93;3.13;;;;;;;34.40;26.71;99565.56;5105354;28;20068;-22
2021/07/06 09:31:36;;;;;;;4.97;3.00;;;;;;;34.22;27.59;99571.03;5104876;28;20862;-23
2021/07/06 09:34:09;;;;;;;4.05;2.85;;;;;;;33.60;27.64;99564.44;5104822;28;20035;-23
2021/07/06 09:36:39;;;;;;;6.47;2.80;;;;;;;33.13;28.02;99573.63;5105324;28;20920;-22
2021/07/06 09:39:10;;;;;;;4.65;2.70;;;;;;;32.33;29.51;99557.50;5104964;28;20028;-23
2021/07/06 09:41:36;;;;;;;4.57;2.40;;;;;;;32.22;29.39;99571.97;5104854;28;20028;-22
2021/07/06 09:44:20;;;;;;;5.13;2.83;;;;;;;31.98;29.74;99573.22;5104635;28;20036;-22
2021/07/06 09:46:50;;;;;;;4.78;2.70;;;;;;;31.95;30.02;99579.47;5104866;28;20036;-22
2021/07/06 09:49:18;;;;;;;4.45;2.70;;;;;;;31.91;30.88;99575.88;5104820;28;20110;-23
2021/07/06 09:51:44;;;;;;;4.80;2.60;;;;;;;32.19;30.28;99577.44;5104532;28;20452;-22
2021/07/06 09:54:09;;;;;;;4.07;2.60;;;;;;;32.65;28.47;99576.34;5104579;28;20482;-22
2021/07/06 09:56:40;;;;;;;5.30;2.90;;;;;;;32.86;28.35;99575.75;5104732;28;20024;-22
2021/07/06 09:59:06;;;;;;;5.90;2.80;;;;;;;32.97;28.50;99582.94;5104752;28;20035;-22
2021/07/06 10:01:32;;;;;;;4.18;2.53;;;;;;;32.98;28.93;99589.28;5103268;28;20062;-22
2021/07/06 10:03:57;;;;;;;4.15;2.88;;;;;;;33.55;27.71;99586.94;5104406;28;20035;-22
2021/07/06 10:06:24;;;;;;;3.80;2.28;;;;;;;33.60;26.69;99585.75;5104454;28;20035;-22
2021/07/06 10:08:50;;;;;;;4.40;2.58;;;;;;;34.00;27.53;99575.69;5104604;28;20046;-22
2021/07/06 10:11:16;;;;;;;7.70;2.60;;;;;;;34.22;27.98;99593.19;5104505;28;20036;-22
2021/07/06 10:13:41;;;;;;;6.80;3.28;;;;;;;34.01;28.28;99589.13;5121841;28;20865;-22
2021/07/06 10:16:07;;;;;;;4.82;2.35;;;;;;;34.46;28.04;99574.25;5125027;28;20043;-22
2021/07/06 10:18:33;;;;;;;6.97;2.78;;;;;;;34.27;26.33;99578.19;5124633;28;20090;-22
2021/07/06 10:20:59;;;;;;;4.78;2.92;;;;;;;34.38;27.01;99568.69;5124843;28;20118;-22
2021/07/06 10:23:25;;;;;;;4.47;2.88;;;;;;;34.81;26.82;99585.41;5120262;28;20457;-22
2021/07/06 10:25:54;;;;;;;4.93;2.78;;;;;;;35.21;26.43;99579.88;5075729;28;20475;-22
2021/07/06 10:28:20;;;;;;;4.22;2.65;;;;;;;34.91;26.87;99569.19;5092672;28;20538;-22
2021/07/06 10:30:46;;;;;;;4.32;2.50;;;;;;;34.46;25.81;99585.34;5092742;28;20529;-22
2021/07/06 10:33:36;;;;;;;5.07;2.60;;;;;;;33.54;27.74;99584.53;5110543;28;20135;-22
2021/07/06 10:36:02;;;;;;;5.32;2.97;;;;;;;33.32;29.00;99580.84;5110456;28;20028;-22
2021/07/06 10:38:28;;;;;;;4.20;2.45;;;;;;;33.15;28.82;99579.56;5110885;28;20036;-22
2021/07/06 10:41:01;;;;;;;4.07;2.53;;;;;;;33.01;28.15;99582.97;5110817;28;20035;-23
2021/07/06 10:43:31;;;;;;;4.93;2.42;;;;;;;33.33;28.38;99565.88;5092759;28;20368;-23
2021/07/06 10:46:14;;;;;;;3.33;2.47;;;;;;;33.31;28.52;99574.53;5110488;28;20016;-22
2021/07/06 10:48:43;;;;;;;4.32;2.80;;;;;;;33.50;29.75;99570.69;5110978;28;20100;-22
2021/07/06 10:51:09;;;;;;;3.63;2.50;;;;;;;33.53;28.64;99569.94;5110667;28;20039;-22
2021/07/06 10:53:34;;;;;;;5.47;2.70;;;;;;;33.40;28.08;99579.72;5110608;28;20085;-22
2021/07/06 10:56:02;;;;;;;5.03;2.80;;;;;;;33.32;29.34;99581.63;5109926;28;20043;-23
2021/07/06 10:58:45;;;;;;;;;;;;;;;32.71;29.37;99575.59;5110716;28;20031;-22
2021/07/06 11:01:11;;;;;;;4.32;2.65;;;;;;;32.41;29.06;99564.66;5110137;28;19908;-22
2021/07/06 11:03:39;;;;;;;3.63;2.58;;;;;;;32.54;28.81;99570.69;5092127;28;20496;-22
2021/07/06 11:06:14;;;;;;;4.40;2.75;;;;;;;33.36;27.47;99542.97;5110318;28;20032;-22
2021/07/06 11:08:40;;;;;;;4.93;2.95;;;;;;;33.98;27.90;99556.72;5076433;28;20039;-22
2021/07/06 11:11:06;;;;;;;4.95;3.00;;;;;;;34.55;29.53;99555.28;5110472;28;20114;-22
2021/07/06 11:13:32;;;;;;;4.68;2.50;;;;;;;34.11;27.60;99550.84;5109978;28;20109;-22
2021/07/06 11:15:58;;;;;;;3.97;2.45;;;;;;;33.93;26.72;99553.53;5109771;28;20035;-22
2021/07/06 11:18:41;;;;;;;4.38;2.50;;;;;;;33.68;27.62;99556.22;5091826;28;20039;-22
2021/07/06 11:21:31;;;;;;;4.10;2.92;;;;;;;33.54;27.16;99562.44;5109740;28;20092;-22
2021/07/06 11:24:12;;;;;;;4.50;3.03;;;;;;;33.57;26.81;99551.38;5109664;28;20059;-22
2021/07/06 11:26:43;;;;;;;6.90;2.78;;;;;;;33.51;27.64;99561.22;5109584;28;20384;-22
2021/07/06 11:29:09;;;;;;;5.00;3.00;;;;;;;33.56;27.26;99552.56;5091980;28;20054;-22
2021/07/06 11:31:34;;;;;;;4.00;2.75;;;;;;;33.47;27.60;99552.13;5091581;28;20050;-22
2021/07/06 11:34:04;;;;;;;3.63;2.75;;;;;;;33.67;29.06;99546.31;5109535;28;20031;-22
2021/07/06 11:36:30;;;;;;;4.78;2.70;;;;;;;33.84;29.67;99540.09;5082068;28;20523;-22
2021/07/06 11:38:57;;;;;;;3.90;2.83;;;;;;;34.03;29.67;99547.25;5081118;28;20032;-22
2021/07/06 11:41:23;;;;;;;4.15;2.70;;;;;;;34.14;27.89;99561.94;5097426;28;20030;-22
2021/07/06 11:43:49;;;;;;;4.87;2.83;;;;;;;34.65;26.37;99564.81;5097577;28;20067;-22
2021/07/06 11:46:18;;;;;;;3.95;2.50;;;;;;;35.13;26.37;99551.34;5098864;28;20118;-22
2021/07/06 11:48:47;;;;;;;5.85;2.45;;;;;;;35.58;26.77;99554.44;5097320;28;20517;-22